Time;durP1;ratioP1;P1;durP2;ratioP2;P2;SDS_P1;SDS_P2;PMS_P1;PMS_P2;Temp;Humidity;BMP_temperature;BMP_pressure;BME280_temperature;BME280_humidity;BME280_pressure;Samples;Min_cycle;Max_cycle;Signal;HPM_P1;HPM_P2
2022/04/21 00:01:37;;;;;;;;;;;;;;;26.59;32.10;93411.47;5034092;28;9390;-60
2022/04/21 00:04:12;;;;;;;;;;;;;;;26.57;31.83;93416.06;5049292;28;7272;-60
2022/04/21 00:06:44;;;;;;;;;;;;;;;26.55;31.99;93407.59;5047475;28;7069;-60
2022/04/21 00:09:14;;;;;;;;;;;;;;;26.55;31.15;93407.59;5048806;28;9580;-59
2022/04/21 00:11:42;;;;;;;;;;;;;;;26.54;32.48;93412.34;5038475;28;7195;-59
2022/04/21 00:14:11;;;;;;;;;;;;;;;26.53;31.20;93412.91;5033078;28;9117;-60
2022/04/21 00:16:49;;;;;;;;;;;;;;;26.51;32.22;93413.41;5048065;28;9123;-59
2022/04/21 00:19:42;;;;;;;;;;;;;;;26.50;32.17;93411.22;5031873;28;7246;-60
2022/04/21 00:25:19;;;;;;;;;;;;;;;26.46;31.88;93399.78;5025881;28;8039;-60
2022/04/21 00:27:48;;;;;;;;;;;;;;;26.48;31.85;93394.47;4994662;28;7236;-59
2022/04/21 00:30:18;;;;;;;;;;;;;;;26.45;31.65;93398.31;5002363;28;7411;-60
2022/04/21 00:32:57;;;;;;;;;;;;;;;26.45;31.13;93390.78;5002678;28;7222;-60
2022/04/21 00:35:23;;;;;;;;;;;;;;;26.47;31.57;93398.53;5003516;28;9068;-60
2022/04/21 00:38:07;;;;;;;;;;;;;;;26.47;31.33;93398.53;5009704;28;7211;-59
2022/04/21 00:40:33;;;;;;;;;;;;;;;26.44;31.46;93397.59;5010395;28;8966;-60
2022/04/21 00:43:01;;;;;;;;;;;;;;;26.46;31.49;93399.78;5012739;28;8884;-60
2022/04/21 00:45:29;;;;;;;;;;;;;;;26.44;31.22;93396.84;5017802;28;7874;-60
2022/04/21 00:48:05;;;;;;;;;;;;;;;26.42;31.25;93393.88;5022696;28;7390;-59
2022/04/21 00:50:39;;;;;;;;;;;;;;;26.46;31.49;93397.03;5023481;28;9428;-59
2022/04/21 00:53:08;;;;;;;;;;;;;;;26.47;31.00;93401.28;5008539;28;7880;-59
2022/04/21 00:55:48;;;;;;;;;;;;;;;26.42;31.57;93397.38;5029233;28;9017;-58
2022/04/21 00:58:15;;;;;;;;;;;;;;;26.42;31.22;93393.88;5010549;28;8210;-58
2022/04/21 01:00:44;;;;;;;;;;;;;;;26.41;31.10;93395.91;5051564;28;9066;-59
2022/04/21 01:03:14;;;;;;;;;;;;;;;26.41;30.73;93398.66;5035967;28;7850;-58
2022/04/21 01:05:40;;;;;;;;;;;;;;;26.41;30.98;93395.16;5051942;28;7378;-59
2022/04/21 01:08:10;;;;;;;;;;;;;;;26.39;31.16;93392.19;5044585;28;9226;-58
2022/04/21 01:10:54;;;;;;;;;;;;;;;26.36;30.84;93394.00;5039353;28;8727;-59
2022/04/21 01:13:21;;;;;;;;;;;;;;;26.39;30.50;93394.94;5040854;28;7224;-59
2022/04/21 01:16:06;;;;;;;;;;;;;;;26.35;30.82;93392.53;5032673;28;7263;-59
2022/04/21 01:18:32;;;;;;;;;;;;;;;26.38;30.91;93393.47;5040069;28;10318;-59
2022/04/21 01:21:01;;;;;;;;;;;;;;;26.36;31.29;93387.78;5040265;28;9123;-59
2022/04/21 01:23:37;;;;;;;;;;;;;;;26.34;31.01;93384.81;5034284;28;9329;-59
2022/04/21 01:26:05;;;;;;;;;;;;;;;26.35;30.63;93392.53;5059233;28;7701;-58
2022/04/21 01:28:36;;;;;;;;;;;;;;;26.32;30.30;93387.38;5038364;28;7169;-59
2022/04/21 01:31:06;;;;;;;;;;;;;;;26.29;30.05;93380.91;5044454;28;9061;-59
2022/04/21 01:33:33;;;;;;;;;;;;;;;26.29;30.30;93383.69;5035870;28;9070;-59
2022/04/21 01:36:09;;;;;;;;;;;;;;;26.31;30.73;93391.41;5042511;28;7398;-59
2022/04/21 01:41:26;;;;;;;;;;;;;;;26.26;30.86;93375.72;5034332;28;9416;-60
2022/04/21 01:43:52;;;;;;;;;;;;;;;26.25;30.42;93372.25;5050080;28;9268;-60
2022/04/21 01:46:28;;;;;;;;;;;;;;;26.25;31.44;93366.75;5045827;28;8645;-60
2022/04/21 01:48:55;;;;;;;;;;;;;;;26.26;30.50;93372.97;5041866;28;8689;-59
2022/04/21 01:51:22;;;;;;;;;;;;;;;26.25;30.92;93372.25;5041554;28;9065;-60
2022/04/21 01:53:56;;;;;;;;;;;;;;;26.25;30.24;93377.78;5039851;28;7357;-60
2022/04/21 01:56:22;;;;;;;;;;;;;;;26.25;30.62;93372.25;5057509;28;7306;-60
2022/04/21 01:58:59;;;;;;;;;;;;;;;26.24;30.29;93365.25;5044485;28;9120;-59
2022/04/21 02:01:29;;;;;;;;;;;;;;;26.25;30.22;93371.50;5036249;28;7228;-59
2022/04/21 02:03:57;;;;;;;;;;;;;;;26.25;30.63;93360.50;5044606;28;7238;-59
2022/04/21 02:06:36;;;;;;;;;;;;;;;26.23;30.25;93363.03;5051714;28;7238;-59
2022/04/21 02:09:04;;;;;;;;;;;;;;;26.21;30.21;93366.31;5034165;28;7942;-59
2022/04/21 02:11:30;;;;;;;;;;;;;;;26.18;30.44;93356.41;5058100;28;9086;-59
2022/04/21 02:13:56;;;;;;;;;;;;;;;26.16;30.22;93354.16;5048444;28;7256;-59
2022/04/21 02:16:28;;;;;;;;;;;;;;;26.19;30.93;93351.63;5047879;28;8391;-60
2022/04/21 02:18:56;;;;;;;;;;;;;;;26.15;30.44;93347.19;5041712;28;8988;-59
2022/04/21 02:21:23;;;;;;;;;;;;;;;26.12;30.54;93351.00;5041374;28;9168;-59
2022/04/21 02:23:49;;;;;;;;;;;;;;;26.11;30.26;93352.28;5042198;28;9060;-59
2022/04/21 02:26:15;;;;;;;;;;;;;;;26.10;30.10;93345.28;5044202;28;7264;-60
2022/04/21 02:29:09;;;;;;;;;;;;;;;26.12;30.58;93347.53;5032558;28;7225;-60
2022/04/21 02:31:46;;;;;;;;;;;;;;;26.07;30.61;93340.84;4998147;28;9784;-60
2022/04/21 02:34:22;;;;;;;;;;;;;;;26.07;29.74;93349.13;5004811;28;6979;-60
2022/04/21 02:36:52;;;;;;;;;;;;;;;26.07;29.97;93351.13;5006079;28;7150;-60
2022/04/21 02:39:20;;;;;;;;;;;;;;;26.03;30.45;93340.44;4989396;28;9483;-59
2022/04/21 02:41:46;;;;;;;;;;;;;;;26.05;30.37;93348.91;4991844;28;7166;-59
2022/04/21 02:44:14;;;;;;;;;;;;;;;26.04;29.97;93333.66;4988003;28;7248;-59
2022/04/21 02:47:05;;;;;;;;;;;;;;;26.03;29.58;93345.22;5009690;28;8992;-59
2022/04/21 02:49:35;;;;;;;;;;;;;;;26.04;29.92;93341.91;5006298;28;8874;-60
2022/04/21 02:52:14;;;;;;;;;;;;;;;26.06;30.25;93344.13;4990719;28;9426;-60
2022/04/21 02:57:30;;;;;;;;;;;;;;;26.01;30.64;93334.00;4999627;28;9386;-60
2022/04/21 02:59:59;;;;;;;;;;;;;;;26.00;30.33;93332.50;4998881;28;9294;-60
2022/04/21 03:02:26;;;;;;;;;;;;;;;25.97;30.57;93330.81;4989214;28;9117;-60
2022/04/21 03:05:00;;;;;;;;;;;;;;;25.96;29.53;93330.09;4983521;28;6991;-60
2022/04/21 03:07:27;;;;;;;;;;;;;;;25.96;30.02;93326.59;5000179;28;9105;-59
2022/04/21 03:09:53;;;;;;;;;;;;;;;25.95;29.77;93325.09;5053123;28;7475;-60
2022/04/21 03:12:23;;;;;;;;;;;;;;;25.95;30.27;93320.34;5044869;28;9045;-60
2022/04/21 03:14:51;;;;;;;;;;;;;;;25.93;29.51;93322.91;5046152;28;9070;-59
2022/04/21 03:17:17;;;;;;;;;;;;;;;25.94;30.20;93323.66;5038082;28;7316;-59
2022/04/21 03:19:44;;;;;;;;;;;;;;;25.94;29.55;93315.38;5045913;28;8249;-60
2022/04/21 03:24:58;;;;;;;;;;;;;;;25.91;30.34;93322.69;5027483;28;7185;-60
2022/04/21 03:27:26;;;;;;;;;;;;;;;25.90;29.50;93312.22;5026606;28;7285;-59
2022/04/21 03:29:55;;;;;;;;;;;;;;;25.87;29.76;93316.78;5034406;28;7366;-60
2022/04/21 03:32:25;;;;;;;;;;;;;;;25.88;30.11;93317.53;5042594;28;8377;-60
2022/04/21 03:34:56;;;;;;;;;;;;;;;25.85;30.27;93321.38;5027700;28;6980;-60
2022/04/21 03:37:27;;;;;;;;;;;;;;;25.85;30.16;93324.84;5041025;28;9289;-59
2022/04/21 03:39:53;;;;;;;;;;;;;;;25.87;30.17;93327.06;5027794;28;9108;-59
2022/04/21 03:42:27;;;;;;;;;;;;;;;25.84;30.04;93320.63;5055973;28;7251;-59
2022/04/21 03:44:54;;;;;;;;;;;;;;;25.81;29.67;93310.69;5051488;28;7256;-59
2022/04/21 03:47:21;;;;;;;;;;;;;;;25.80;29.78;93311.97;5046599;28;7116;-60
2022/04/21 03:49:47;;;;;;;;;;;;;;;25.79;30.23;93316.00;5046923;28;9209;-60
2022/04/21 03:52:22;;;;;;;;;;;;;;;25.81;29.86;93318.22;5054639;28;7046;-59
2022/04/21 03:54:48;;;;;;;;;;;;;;;25.79;29.53;93313.25;5046714;28;7401;-59
2022/04/21 03:57:21;;;;;;;;;;;;;;;25.80;30.15;93305.69;5036652;28;6985;-60
2022/04/21 03:59:54;;;;;;;;;;;;;;;25.79;29.46;93310.50;5046211;28;8198;-59
2022/04/21 04:02:20;;;;;;;;;;;;;;;25.78;29.86;93313.75;5047145;28;7925;-60
2022/04/21 04:04:48;;;;;;;;;;;;;;;25.77;30.00;93310.28;5042320;28;8858;-60
2022/04/21 04:12:50;;;;;;;;;;;;;;;25.76;29.30;93314.31;5045585;28;7448;-60
2022/04/21 04:15:17;;;;;;;;;;;;;;;25.78;29.87;93320.03;5045989;28;9112;-60
2022/04/21 04:17:43;;;;;;;;;;;;;;;25.76;30.17;93313.56;5034079;28;9217;-60
2022/04/21 04:20:09;;;;;;;;;;;;;;;25.77;30.00;93317.81;5033488;28;9027;-60
2022/04/21 04:22:40;;;;;;;;;;;;;;;25.78;29.85;93311.75;5046052;28;7497;-60
2022/04/21 04:25:08;;;;;;;;;;;;;;;25.79;29.96;93316.00;5044504;28;8440;-59
2022/04/21 04:27:36;;;;;;;;;;;;;;;25.79;29.59;93320.75;5049238;28;6998;-59
2022/04/21 04:30:04;;;;;;;;;;;;;;;25.76;29.73;93313.56;5045565;28;7138;-59
2022/04/21 04:32:30;;;;;;;;;;;;;;;25.78;29.16;93311.75;5047863;28;9027;-59
2022/04/21 04:34:56;;;;;;;;;;;;;;;25.78;29.39;93311.00;5038679;28;9361;-60
2022/04/21 04:37:22;;;;;;;;;;;;;;;25.77;29.58;93310.28;5039540;28;9548;-60
2022/04/21 04:39:48;;;;;;;;;;;;;;;25.79;28.79;93309.75;5048737;28;9094;-59
2022/04/21 04:42:17;;;;;;;;;;;;;;;25.79;29.40;93312.50;5044855;28;7209;-59
2022/04/21 04:44:44;;;;;;;;;;;;;;;25.77;29.77;93315.06;5056864;28;7045;-59
2022/04/21 04:47:15;;;;;;;;;;;;;;;25.76;29.03;93319.81;5039517;28;7230;-60
2022/04/21 04:49:43;;;;;;;;;;;;;;;25.75;29.53;93320.38;5059540;28;9089;-60
2022/04/21 04:52:18;;;;;;;;;;;;;;;25.74;28.83;93314.13;5042347;28;7411;-60
2022/04/21 04:54:56;;;;;;;;;;;;;;;25.71;29.14;93308.94;5039511;28;9111;-60
2022/04/21 04:57:26;;;;;;;;;;;;;;;25.72;29.05;93313.16;5047088;28;9093;-60
2022/04/21 04:59:52;;;;;;;;;;;;;;;25.71;28.96;93306.19;5042060;28;7205;-60
2022/04/21 05:02:20;;;;;;;;;;;;;;;25.74;29.79;93303.09;5037103;28;7934;-60
2022/04/21 05:04:52;;;;;;;;;;;;;;;25.74;29.19;93300.34;5058878;28;9045;-60
2022/04/21 05:07:28;;;;;;;;;;;;;;;25.71;29.20;93298.66;5036609;28;7212;-59
2022/04/21 05:09:56;;;;;;;;;;;;;;;25.73;29.69;93315.38;5045962;28;8819;-59
2022/04/21 05:12:58;;;;;;;;;;;;;;;25.73;29.18;93309.88;5047723;28;9337;-59
2022/04/21 05:15:27;;;;;;;;;;;;;;;25.72;29.28;93311.16;4948348;28;7967;-59
2022/04/21 05:17:55;;;;;;;;;;;;;;;25.69;29.46;93305.97;4955442;28;9125;-59
2022/04/21 05:20:25;;;;;;;;;;;;;;;25.65;29.82;93303.56;4971618;28;9355;-59
2022/04/21 05:23:03;;;;;;;;;;;;;;;25.62;30.04;93301.88;4970846;28;7242;-59
2022/04/21 05:25:37;;;;;;;;;;;;;;;25.59;29.04;93300.19;4951702;28;7843;-60
2022/04/21 05:28:14;;;;;;;;;;;;;;;25.62;29.79;93303.91;4967049;28;9097;-60
2022/04/21 05:30:55;;;;;;;;;;;;;;;25.61;29.60;93305.91;4967187;28;7608;-60
2022/04/21 05:33:24;;;;;;;;;;;;;;;25.64;29.58;93299.34;4952681;28;7050;-60
2022/04/21 05:36:04;;;;;;;;;;;;;;;25.67;29.05;93292.00;4954534;28;8058;-61
2022/04/21 05:38:39;;;;;;;;;;;;;;;25.69;29.60;93295.69;4977732;28;9088;-59
2022/04/21 05:41:06;;;;;;;;;;;;;;;25.70;28.60;93296.44;4962312;28;9050;-59
2022/04/21 05:43:40;;;;;;;;;;;;;;;25.67;28.99;93290.00;4969651;28;8526;-59
2022/04/21 05:46:07;;;;;;;;;;;;;;;25.69;28.75;93294.94;4955806;28;7960;-59
2022/04/21 05:48:55;;;;;;;;;;;;;;;25.68;29.27;93288.72;4968081;28;8740;-62
2022/04/21 05:51:23;;;;;;;;;;;;;;;25.64;29.28;93273.81;5060654;28;7264;-59
2022/04/21 05:53:52;;;;;;;;;;;;;;;25.68;29.76;93285.22;5042576;28;9091;-59
2022/04/21 05:56:33;;;;;;;;;;;;;;;25.65;29.03;93292.53;5045889;28;7846;-59
2022/04/21 05:59:00;;;;;;;;;;;;;;;25.66;29.28;93291.28;5032249;28;9168;-59
2022/04/21 06:01:29;;;;;;;;;;;;;;;25.66;29.73;93285.78;5033364;28;9010;-59
2022/04/21 06:03:55;;;;;;;;;;;;;;;25.64;29.48;93282.81;5040612;28;9366;-60
2022/04/21 06:06:20;;;;;;;;;;;;;;;25.58;29.31;93282.19;5043933;28;9165;-60
2022/04/21 06:08:55;;;;;;;;;;;;;;;25.61;29.23;93288.66;5038739;28;7677;-60
2022/04/21 06:11:22;;;;;;;;;;;;;;;25.61;29.14;93283.13;5045985;28;7138;-60
2022/04/21 06:13:52;;;;;;;;;;;;;;;25.61;30.12;93289.38;5048051;28;7238;-59
2022/04/21 06:16:20;;;;;;;;;;;;;;;25.62;30.72;93285.34;5034025;28;7478;-59
2022/04/21 06:18:46;;;;;;;;;;;;;;;25.64;30.10;93288.31;5058421;28;9571;-59
2022/04/21 06:21:12;;;;;;;;;;;;;;;25.65;30.46;93276.03;5039608;28;9622;-59
2022/04/21 06:23:40;;;;;;;;;;;;;;;25.65;31.18;93284.28;5044684;28;7186;-59
2022/04/21 06:26:42;;;;;;;;;;;;;;;25.64;31.35;93282.81;5050543;28;7260;-59
2022/04/21 06:29:26;;;;;;;;;;;;;;;25.64;30.99;93282.06;4956352;28;7378;-59
2022/04/21 06:32:02;;;;;;;;;;;;;;;25.63;31.33;93286.84;4959129;28;7203;-59
2022/04/21 06:34:37;;;;;;;;;;;;;;;25.64;31.63;93293.09;4967976;28;6997;-59
2022/04/21 06:37:31;;;;;;;;;;;;;;;25.63;31.03;93281.34;4971322;28;7266;-60
2022/04/21 06:40:07;;;;;;;;;;;;;;;25.63;31.79;93278.56;4969331;28;9111;-60
2022/04/21 06:42:35;;;;;;;;;;;;;;;25.61;31.63;93275.63;4977147;28;6919;-60
2022/04/21 06:48:02;;;;;;;;;;;;;;;25.64;32.17;93282.06;4987557;28;9422;-60
2022/04/21 06:50:32;;;;;;;;;;;;;;;25.63;31.91;93275.06;4980536;28;9459;-60
2022/04/21 06:53:09;;;;;;;;;;;;;;;25.62;31.75;93274.34;4978657;28;8940;-58
2022/04/21 06:55:39;;;;;;;;;;;;;;;25.63;31.98;93273.06;4968465;28;9097;-59
2022/04/21 06:58:05;;;;;;;;;;;;;;;25.64;31.44;93277.31;4970837;28;9715;-59
2022/04/21 07:00:31;;;;;;;;;;;;;;;25.61;32.23;93275.63;4988537;28;7207;-59
2022/04/21 07:02:58;;;;;;;;;;;;;;;25.62;32.03;93279.84;4959764;28;7647;-60
2022/04/21 07:05:26;;;;;;;;;;;;;;;25.61;32.03;93281.13;5023829;28;7276;-60
2022/04/21 07:07:54;;;;;;;;;;;;;;;25.62;32.28;93277.09;5034092;28;7941;-60
2022/04/21 07:10:21;;;;;;;;;;;;;;;25.61;31.73;93278.38;5033501;28;9115;-61
2022/04/21 07:12:48;;;;;;;;;;;;;;;25.63;32.17;93275.81;5035284;28;6987;-60
2022/04/21 07:15:14;;;;;;;;;;;;;;;25.63;31.68;93270.31;5027957;28;7238;-61
2022/04/21 07:17:41;;;;;;;;;;;;;;;25.63;32.53;93267.56;5034893;28;9327;-60
2022/04/21 07:20:22;;;;;;;;;;;;;;;25.64;32.20;93274.56;5048978;28;7159;-59
2022/04/21 07:22:48;;;;;;;;;;;;;;;25.64;31.97;93269.06;5049340;28;8749;-58
2022/04/21 07:25:19;;;;;;;;;;;;;;;25.64;31.81;93271.06;5030094;28;7657;-59
2022/04/21 07:27:54;;;;;;;;;;;;;;;25.62;32.41;93268.09;5044755;28;7613;-58
2022/04/21 07:30:21;;;;;;;;;;;;;;;25.65;32.05;93265.00;5045116;28;7262;-59
2022/04/21 07:32:48;;;;;;;;;;;;;;;25.66;32.64;93263.00;5044820;28;9703;-58
2022/04/21 07:35:19;;;;;;;;;;;;;;;25.65;32.56;93262.25;5037330;28;7279;-59
2022/04/21 07:37:46;;;;;;;;;;;;;;;25.67;32.21;93251.44;5030186;28;8739;-60
2022/04/21 07:40:23;;;;;;;;;;;;;;;25.67;31.88;93251.44;5037246;28;6992;-60
2022/04/21 07:42:53;;;;;;;;;;;;;;;25.64;31.93;93254.53;5032407;28;8835;-60
2022/04/21 07:45:19;;;;;;;;;;;;;;;25.64;32.42;93260.03;5054735;28;7222;-60
2022/04/21 07:47:44;;;;;;;;;;;;;;;25.64;32.12;93257.28;5040220;28;9096;-60
2022/04/21 07:50:10;;;;;;;;;;;;;;;25.64;32.43;93255.28;5046900;28;9079;-60
2022/04/21 07:55:30;;;;;;;;;;;;;;;25.62;32.61;93252.31;5033910;28;9513;-60
2022/04/21 07:57:59;;;;;;;;;;;;;;;25.65;32.35;93251.25;5049552;28;9562;-60
2022/04/21 08:00:27;;;;;;;;;;;;;;;25.64;32.67;93255.28;5031193;28;6985;-60
2022/04/21 08:02:54;;;;;;;;;;;;;;;25.61;32.78;93248.09;5047937;28;9375;-60
2022/04/21 08:05:24;;;;;;;;;;;;;;;25.62;31.65;93257.81;5052629;28;8921;-60
2022/04/21 08:07:51;;;;;;;;;;;;;;;25.62;31.68;93251.59;5048577;28;7292;-60
2022/04/21 08:10:28;;;;;;;;;;;;;;;25.62;32.14;93255.06;5034471;28;7168;-60
2022/04/21 08:12:58;;;;;;;;;;;;;;;25.60;31.98;93245.88;5042886;28;9034;-60
2022/04/21 08:15:29;;;;;;;;;;;;;;;25.58;32.50;93249.16;5037909;28;7034;-60
2022/04/21 08:18:00;;;;;;;;;;;;;;;25.60;32.09;93259.66;5027800;28;8850;-60
2022/04/21 08:20:28;;;;;;;;;;;;;;;25.59;32.67;93256.16;5042346;28;8939;-60
2022/04/21 08:22:55;;;;;;;;;;;;;;;25.63;31.63;93261.31;5041334;28;9195;-60
2022/04/21 08:33:52;;;;;;;;;;;;;;;25.61;32.12;93259.09;5024349;28;7175;-61
2022/04/21 08:36:28;;;;;;;;;;;;;;;25.57;32.62;93261.47;5026161;28;9298;-60
2022/04/21 08:39:15;;;;;;;;;;;;;;;25.59;32.35;93258.16;4998051;28;7204;-60
2022/04/21 08:41:48;;;;;;;;;;;;;;;25.60;32.23;93260.38;5008519;28;7250;-60
2022/04/21 08:44:21;;;;;;;;;;;;;;;25.55;32.81;93255.75;5018428;28;6932;-60
2022/04/21 08:47:02;;;;;;;;;;;;;;;25.55;32.21;93253.00;5018858;28;7080;-60
2022/04/21 08:49:32;;;;;;;;;;;;;;;25.55;32.84;93244.75;5010832;28;7374;-60
2022/04/21 08:52:19;;;;;;;;;;;;;;;25.57;32.99;93250.44;5011430;28;7264;-60
2022/04/21 08:54:59;;;;;;;;;;;;;;;25.56;32.73;93248.22;5005769;28;7268;-60
2022/04/21 08:57:28;;;;;;;;;;;;;;;25.54;32.96;93245.25;5011401;28;7222;-60
2022/04/21 09:00:04;;;;;;;;;;;;;;;25.49;32.63;93244.13;5007168;28;7209;-60
2022/04/21 09:02:40;;;;;;;;;;;;;;;25.51;33.07;93238.84;4998417;28;7110;-60
2022/04/21 09:05:22;;;;;;;;;;;;;;;25.53;32.37;93241.78;5029413;28;9394;-60
2022/04/21 09:07:50;;;;;;;;;;;;;;;25.54;32.34;93248.75;5007271;28;7266;-61
2022/04/21 09:10:19;;;;;;;;;;;;;;;25.55;32.34;93250.25;5017857;28;6990;-60
2022/04/21 09:12:57;;;;;;;;;;;;;;;25.54;32.43;93251.50;5042488;28;9211;-61
2022/04/21 09:15:27;;;;;;;;;;;;;;;25.56;32.47;93248.22;5043223;28;8885;-61
2022/04/21 09:18:07;;;;;;;;;;;;;;;25.56;33.01;93246.19;5032035;28;7615;-60
2022/04/21 09:20:39;;;;;;;;;;;;;;;25.57;33.39;93244.19;5030076;28;7454;-60
2022/04/21 09:23:10;;;;;;;;;;;;;;;25.56;32.84;93237.19;5046943;28;9266;-61
2022/04/21 09:25:50;;;;;;;;;;;;;;;25.55;33.29;93239.22;5045619;28;7294;-60
2022/04/21 09:28:34;;;;;;;;;;;;;;;25.55;33.15;93232.97;5043658;28;9019;-61
2022/04/21 09:31:01;;;;;;;;;;;;;;;25.56;33.32;93232.44;5045817;28;9325;-61
2022/04/21 09:33:32;;;;;;;;;;;;;;;25.54;32.82;93235.00;5038658;28;8006;-58
2022/04/21 09:36:04;;;;;;;;;;;;;;;25.53;33.14;93232.78;5048987;28;9388;-58
2022/04/21 09:38:39;;;;;;;;;;;;;;;25.56;32.94;93231.69;5046228;28;7190;-58
2022/04/21 09:41:13;;;;;;;;;;;;;;;25.57;33.36;93228.41;5043972;28;7118;-58
2022/04/21 09:43:42;;;;;;;;;;;;;;;25.58;32.92;93227.13;5049430;28;7299;-58
2022/04/21 09:46:21;;;;;;;;;;;;;;;25.60;32.75;93221.81;5051913;28;9291;-58
2022/04/21 09:48:55;;;;;;;;;;;;;;;25.59;33.31;93220.34;5051829;28;9102;-58
2022/04/21 09:51:51;;;;;;;;;;;;;;;25.64;33.33;93221.50;5043001;28;8749;-58
2022/04/21 09:54:29;;;;;;;;;;;;;;;25.66;32.60;93216.94;4963485;28;7045;-58
2022/04/21 09:57:09;;;;;;;;;;;;;;;25.64;32.51;93211.22;4985226;28;8903;-58
2022/04/21 09:59:41;;;;;;;;;;;;;;;25.65;33.00;93217.44;4974393;28;7054;-58
2022/04/21 10:02:16;;;;;;;;;;;;;;;25.63;33.07;93209.72;4974630;28;9373;-58
2022/04/21 10:04:48;;;;;;;;;;;;;;;25.61;32.83;93206.78;4955162;28;6998;-58
2022/04/21 10:07:16;;;;;;;;;;;;;;;25.64;33.28;93204.97;4971851;28;9157;-58
2022/04/21 10:09:51;;;;;;;;;;;;;;;25.65;33.22;93201.66;4969544;28;6989;-58
2022/04/21 10:12:18;;;;;;;;;;;;;;;25.67;32.79;93193.59;4971878;28;7606;-58
2022/04/21 10:14:47;;;;;;;;;;;;;;;25.68;33.59;93189.59;4956918;28;6982;-58
2022/04/21 10:17:13;;;;;;;;;;;;;;;25.69;32.78;93187.53;4963922;28;8373;-58
2022/04/21 10:19:39;;;;;;;;;;;;;;;25.70;33.17;93187.03;4967641;28;9293;-58
2022/04/21 10:22:13;;;;;;;;;;;;;;;25.71;33.17;93182.97;4970152;28;6970;-58
2022/04/21 10:24:43;;;;;;;;;;;;;;;25.68;33.22;93177.81;4969593;28;7009;-58
2022/04/21 10:27:37;;;;;;;;;;;;;;;25.70;33.39;93176.00;4970614;28;7100;-58
2022/04/21 10:30:26;;;;;;;;;;;;;;;25.69;33.02;93179.28;4986994;28;9415;-58
2022/04/21 10:32:54;;;;;;;;;;;;;;;25.68;33.29;93175.81;5051939;28;9153;-58
2022/04/21 10:35:40;;;;;;;;;;;;;;;25.69;33.50;93169.00;5025501;28;7709;-60
2022/04/21 10:38:12;;;;;;;;;;;;;;;25.66;33.54;93167.34;5038203;28;7190;-60
2022/04/21 10:41:06;;;;;;;;;;;;;;;25.68;33.05;93162.03;5030968;28;7649;-61
2022/04/21 10:43:56;;;;;;;;;;;;;;;25.69;33.30;93155.25;5030424;28;6992;-61
2022/04/21 10:46:29;;;;;;;;;;;;;;;25.68;33.73;93153.03;5024277;28;7174;-59
2022/04/21 10:48:59;;;;;;;;;;;;;;;25.67;32.96;93148.81;5045223;28;9111;-59
2022/04/21 10:57:12;;;;;;;;;;;;;;;25.68;32.72;93142.03;5027478;28;7414;-59
2022/04/21 10:57:36;;;;;;;;;;;;;;;25.68;33.32;93131.75;4995431;28;7316;-59
2022/04/21 11:00:32;;;;;;;;;;;;;;;25.68;32.96;93123.50;4997446;28;7876;-59
2022/04/21 11:03:07;;;;;;;;;;;;;;;25.70;32.96;93122.94;4946053;28;7452;-59
2022/04/21 11:05:38;;;;;;;;;;;;;;;25.70;32.78;93112.66;4951243;28;7164;-59
2022/04/21 11:08:10;;;;;;;;;;;;;;;25.70;33.03;93115.44;4951406;28;9485;-59
2022/04/21 11:10:36;;;;;;;;;;;;;;;25.72;33.71;93110.13;4942839;28;9542;-59
2022/04/21 11:13:18;;;;;;;;;;;;;;;25.72;32.85;93110.13;4934012;28;7013;-58
2022/04/21 11:16:04;;;;;;;;;;;;;;;25.74;33.58;93098.53;4935047;28;7224;-59
2022/04/21 11:18:41;;;;;;;;;;;;;;;25.74;33.08;93104.81;4925841;29;9040;-59
2022/04/21 11:21:28;;;;;;;;;;;;;;;25.73;33.31;93100.56;4934316;28;7814;-60
2022/04/21 11:23:54;;;;;;;;;;;;;;;25.73;33.80;93100.56;4932668;28;7219;-60
2022/04/21 11:26:56;;;;;;;;;;;;;;;25.76;32.86;93095.97;4950008;28;9102;-60
2022/04/21 11:29:31;;;;;;;;;;;;;;;25.78;33.22;93107.19;4879017;29;9156;-60
2022/04/21 11:32:02;;;;;;;;;;;;;;;25.78;33.03;93099.69;4878463;29;9087;-60
2022/04/21 11:34:39;;;;;;;;;;;;;;;25.80;32.73;93099.13;4868883;29;8597;-60
2022/04/21 11:37:07;;;;;;;;;;;;;;;25.81;33.68;93095.09;4868106;29;9372;-60
2022/04/21 11:39:47;;;;;;;;;;;;;;;25.83;32.94;93095.28;4907254;28;9155;-60
2022/04/21 11:42:31;;;;;;;;;;;;;;;25.81;33.24;93097.84;4943629;28;8758;-60
2022/04/21 11:44:57;;;;;;;;;;;;;;;25.82;33.26;93094.56;4962979;28;9083;-60
2022/04/21 11:47:23;;;;;;;;;;;;;;;25.84;32.96;93096.75;4969888;28;9121;-60
2022/04/21 11:50:02;;;;;;;;;;;;;;;25.84;33.18;93097.50;4953711;28;8139;-60
2022/04/21 11:52:31;;;;;;;;;;;;;;;25.86;32.30;93092.19;4963901;28;8841;-60
2022/04/21 11:55:02;;;;;;;;;;;;;;;25.86;33.04;93091.47;4965452;28;7469;-60
2022/04/21 11:57:41;;;;;;;;;;;;;;;25.84;33.49;93080.22;4956475;28;7235;-60
2022/04/21 12:00:15;;;;;;;;;;;;;;;25.81;33.24;93075.81;4939143;28;7457;-60
2022/04/21 12:08:33;;;;;;;;;;;;;;;25.76;33.14;93068.44;5043397;28;7316;-60
2022/04/21 12:11:01;;;;;;;;;;;;;;;25.78;33.31;93065.88;5046063;28;9209;-60
2022/04/21 12:13:29;;;;;;;;;;;;;;;25.79;33.51;93070.13;5052411;28;9465;-60
2022/04/21 12:15:56;;;;;;;;;;;;;;;25.78;33.31;93072.13;5041490;28;7315;-60
2022/04/21 12:18:22;;;;;;;;;;;;;;;25.77;33.17;93078.19;5045931;28;7184;-60
2022/04/21 12:21:03;;;;;;;;;;;;;;;25.78;33.24;93069.38;5046505;28;7460;-60
2022/04/21 12:23:57;;;;;;;;;;;;;;;25.78;33.14;93063.88;5018049;28;9096;-60
2022/04/21 12:26:37;;;;;;;;;;;;;;;25.81;33.16;93071.06;4962694;28;9533;-60
2022/04/21 12:29:14;;;;;;;;;;;;;;;25.84;33.46;93061.69;4985192;28;7209;-60
2022/04/21 12:32:04;;;;;;;;;;;;;;;25.87;33.55;93060.59;4972367;28;9084;-60
2022/04/21 12:34:39;;;;;;;;;;;;;;;25.86;32.93;93050.88;4985678;28;7249;-60
2022/04/21 12:37:08;;;;;;;;;;;;;;;25.87;33.57;93052.34;4978940;28;7255;-60
2022/04/21 12:39:55;;;;;;;;;;;;;;;25.91;33.01;93047.22;4955175;28;7021;-60
2022/04/21 12:42:21;;;;;;;;;;;;;;;25.92;32.79;93040.44;4966879;28;7232;-60
2022/04/21 12:44:50;;;;;;;;;;;;;;;25.92;33.17;93043.19;4969757;28;7101;-60
2022/04/21 12:47:18;;;;;;;;;;;;;;;25.93;32.69;93038.41;4989783;28;7311;-60
2022/04/21 12:50:08;;;;;;;;;;;;;;;25.92;32.67;93040.44;4967967;28;7182;-60
2022/04/21 12:52:54;;;;;;;;;;;;;;;25.94;33.31;93037.13;4972412;28;9270;-60
2022/04/21 12:55:31;;;;;;;;;;;;;;;25.95;32.99;93033.09;4991805;28;7207;-60
2022/04/21 12:58:09;;;;;;;;;;;;;;;25.97;33.28;93036.03;4973960;28;9507;-60
2022/04/21 13:00:41;;;;;;;;;;;;;;;25.99;33.64;93025.22;4966186;28;9092;-60
2022/04/21 13:03:14;;;;;;;;;;;;;;;25.99;32.81;93028.69;4996710;28;7931;-60
2022/04/21 13:05:51;;;;;;;;;;;;;;;26.02;33.57;93018.59;5039722;28;9450;-60
2022/04/21 13:08:19;;;;;;;;;;;;;;;26.05;32.79;93015.50;5043023;28;7271;-60
2022/04/21 13:10:52;;;;;;;;;;;;;;;26.06;33.25;93014.22;5030670;28;9354;-59
2022/04/21 13:13:18;;;;;;;;;;;;;;;26.04;33.24;93011.25;5044693;28;7020;-60
2022/04/21 13:15:45;;;;;;;;;;;;;;;26.06;32.66;93014.22;5029054;28;7045;-60
2022/04/21 13:18:12;;;;;;;;;;;;;;;26.07;32.87;93001.91;5044669;28;9012;-60
2022/04/21 13:23:27;;;;;;;;;;;;;;;26.08;32.89;93000.66;5036402;28;7062;-60
2022/04/21 13:26:08;;;;;;;;;;;;;;;26.09;33.37;92996.63;5035085;28;7277;-60
2022/04/21 13:28:34;;;;;;;;;;;;;;;26.09;33.45;93001.38;5049182;28;9064;-60
2022/04/21 13:33:48;;;;;;;;;;;;;;;26.12;33.34;93000.31;5036912;28;9055;-60
2022/04/21 13:36:16;;;;;;;;;;;;;;;26.13;32.95;92999.00;5031193;28;8183;-60
2022/04/21 13:38:44;;;;;;;;;;;;;;;26.14;32.97;92995.69;5037608;28;9098;-60
2022/04/21 13:41:11;;;;;;;;;;;;;;;26.19;33.61;92998.84;5037459;28;7180;-60
2022/04/21 13:43:37;;;;;;;;;;;;;;;26.20;33.26;93000.31;5048697;28;9572;-60
2022/04/21 13:46:05;;;;;;;;;;;;;;;26.21;32.87;92996.28;5040423;28;9056;-60
2022/04/21 13:48:31;;;;;;;;;;;;;;;26.22;32.87;93000.50;5048134;28;7212;-60
2022/04/21 13:50:57;;;;;;;;;;;;;;;26.24;33.21;92989.66;5040093;28;7346;-60
2022/04/21 13:53:27;;;;;;;;;;;;;;;26.25;33.26;92985.63;5045874;28;9417;-60
2022/04/21 13:55:53;;;;;;;;;;;;;;;26.26;32.99;92987.09;5041052;28;8934;-60
2022/04/21 13:58:22;;;;;;;;;;;;;;;26.28;33.28;92990.78;5061849;28;8820;-60
2022/04/21 14:00:49;;;;;;;;;;;;;;;26.30;33.50;92990.97;5032089;28;9042;-60
2022/04/21 14:03:15;;;;;;;;;;;;;;;26.32;32.78;92987.66;5029991;28;7150;-60
2022/04/21 14:05:41;;;;;;;;;;;;;;;26.33;33.56;92987.13;5037216;28;9016;-60
2022/04/21 14:08:11;;;;;;;;;;;;;;;26.35;32.50;92983.81;5030392;28;7639;-60
2022/04/21 14:10:38;;;;;;;;;;;;;;;26.36;33.08;92988.03;5034098;28;6976;-60